sensor_id;sensor_type;location;lat;lon;timestamp;P1;durP1;ratioP1;P2;durP2;ratioP2
6422;SDS011;3244;42.708;23.288;2023-09-19T00:00:04;4.47;;;4.15;;
6422;SDS011;3244;42.708;23.288;2023-09-19T00:02:31;4.15;;;3.88;;
6422;SDS011;3244;42.708;23.288;2023-09-19T00:04:59;4.28;;;3.78;;
6422;SDS011;3244;42.708;23.288;2023-09-19T00:07:28;4.65;;;4.35;;
6422;SDS011;3244;42.708;23.288;2023-09-19T00:09:55;4.05;;;3.75;;
6422;SDS011;3244;42.708;23.288;2023-09-19T00:12:22;4.07;;;3.60;;
6422;SDS011;3244;42.708;23.288;2023-09-19T00:14:49;6.00;;;3.97;;
6422;SDS011;3244;42.708;23.288;2023-09-19T00:17:16;4.18;;;3.53;;
6422;SDS011;3244;42.708;23.288;2023-09-19T00:19:42;6.60;;;4.03;;
6422;SDS011;3244;42.708;23.288;2023-09-19T00:22:10;4.50;;;4.13;;
6422;SDS011;3244;42.708;23.288;2023-09-19T00:24:38;4.85;;;3.92;;
6422;SDS011;3244;42.708;23.288;2023-09-19T00:27:05;4.93;;;3.63;;
6422;SDS011;3244;42.708;23.288;2023-09-19T00:29:33;8.63;;;4.30;;
6422;SDS011;3244;42.708;23.288;2023-09-19T00:31:59;3.95;;;3.65;;
6422;SDS011;3244;42.708;23.288;2023-09-19T00:34:28;4.88;;;4.35;;
6422;SDS011;3244;42.708;23.288;2023-09-19T00:36:55;7.30;;;4.63;;
6422;SDS011;3244;42.708;23.288;2023-09-19T00:39:22;4.18;;;3.88;;
6422;SDS011;3244;42.708;23.288;2023-09-19T00:41:50;7.20;;;4.10;;
6422;SDS011;3244;42.708;23.288;2023-09-19T00:44:17;4.55;;;4.22;;
6422;SDS011;3244;42.708;23.288;2023-09-19T00:46:45;4.85;;;4.45;;
6422;SDS011;3244;42.708;23.288;2023-09-19T00:49:14;7.88;;;4.07;;
6422;SDS011;3244;42.708;23.288;2023-09-19T00:51:41;4.95;;;3.88;;
6422;SDS011;3244;42.708;23.288;2023-09-19T00:54:10;4.95;;;4.53;;
6422;SDS011;3244;42.708;23.288;2023-09-19T00:56:39;4.57;;;4.20;;
6422;SDS011;3244;42.708;23.288;2023-09-19T00:59:07;5.72;;;4.82;;
6422;SDS011;3244;42.708;23.288;2023-09-19T01:01:34;5.05;;;4.65;;
6422;SDS011;3244;42.708;23.288;2023-09-19T01:04:01;4.55;;;4.13;;
6422;SDS011;3244;42.708;23.288;2023-09-19T01:06:29;4.13;;;3.72;;
6422;SDS011;3244;42.708;23.288;2023-09-19T01:08:56;7.47;;;4.25;;
6422;SDS011;3244;42.708;23.288;2023-09-19T01:11:25;6.90;;;4.45;;
6422;SDS011;3244;42.708;23.288;2023-09-19T01:13:56;5.07;;;4.68;;
6422;SDS011;3244;42.708;23.288;2023-09-19T01:16:28;4.38;;;4.07;;
6422;SDS011;3244;42.708;23.288;2023-09-19T01:19:00;5.15;;;4.72;;
6422;SDS011;3244;42.708;23.288;2023-09-19T01:21:30;5.72;;;4.40;;
6422;SDS011;3244;42.708;23.288;2023-09-19T01:24:16;5.25;;;4.82;;
6422;SDS011;3244;42.708;23.288;2023-09-19T01:26:55;7.63;;;5.40;;
6422;SDS011;3244;42.708;23.288;2023-09-19T01:29:26;5.30;;;4.82;;
6422;SDS011;3244;42.708;23.288;2023-09-19T01:32:02;8.73;;;5.10;;
6422;SDS011;3244;42.708;23.288;2023-09-19T01:34:42;6.68;;;4.97;;
6422;SDS011;3244;42.708;23.288;2023-09-19T01:37:10;5.13;;;4.75;;
6422;SDS011;3244;42.708;23.288;2023-09-19T01:39:37;5.70;;;5.25;;
6422;SDS011;3244;42.708;23.288;2023-09-19T01:42:05;4.82;;;4.53;;
6422;SDS011;3244;42.708;23.288;2023-09-19T01:44:36;6.10;;;4.82;;
6422;SDS011;3244;42.708;23.288;2023-09-19T01:47:10;6.20;;;5.38;;
6422;SDS011;3244;42.708;23.288;2023-09-19T01:49:54;5.03;;;4.55;;
6422;SDS011;3244;42.708;23.288;2023-09-19T01:52:22;41.63;;;25.33;;
6422;SDS011;3244;42.708;23.288;2023-09-19T01:54:53;7.40;;;6.70;;
6422;SDS011;3244;42.708;23.288;2023-09-19T01:57:22;6.20;;;5.70;;
6422;SDS011;3244;42.708;23.288;2023-09-19T01:59:54;8.93;;;8.02;;
6422;SDS011;3244;42.708;23.288;2023-09-19T02:02:24;5.43;;;5.00;;
6422;SDS011;3244;42.708;23.288;2023-09-19T02:04:51;14.45;;;9.70;;
6422;SDS011;3244;42.708;23.288;2023-09-19T02:07:18;83.95;;;31.85;;
6422;SDS011;3244;42.708;23.288;2023-09-19T02:09:45;66.18;;;27.00;;
6422;SDS011;3244;42.708;23.288;2023-09-19T02:12:13;54.78;;;20.52;;
6422;SDS011;3244;42.708;23.288;2023-09-19T02:14:40;39.35;;;16.73;;
6422;SDS011;3244;42.708;23.288;2023-09-19T02:17:07;7.05;;;6.28;;
6422;SDS011;3244;42.708;23.288;2023-09-19T02:19:38;8.63;;;7.70;;
6422;SDS011;3244;42.708;23.288;2023-09-19T02:22:06;6.63;;;6.13;;
6422;SDS011;3244;42.708;23.288;2023-09-19T02:24:35;7.30;;;6.50;;
6422;SDS011;3244;42.708;23.288;2023-09-19T02:27:02;5.47;;;5.15;;
6422;SDS011;3244;42.708;23.288;2023-09-19T02:29:31;8.30;;;6.50;;
6422;SDS011;3244;42.708;23.288;2023-09-19T02:31:57;6.13;;;5.43;;
6422;SDS011;3244;42.708;23.288;2023-09-19T02:34:23;6.32;;;5.57;;
6422;SDS011;3244;42.708;23.288;2023-09-19T02:36:52;6.65;;;5.80;;
6422;SDS011;3244;42.708;23.288;2023-09-19T02:39:18;8.35;;;6.22;;
6422;SDS011;3244;42.708;23.288;2023-09-19T02:41:45;6.45;;;5.90;;
6422;SDS011;3244;42.708;23.288;2023-09-19T02:44:12;6.75;;;6.25;;
6422;SDS011;3244;42.708;23.288;2023-09-19T02:46:39;8.80;;;5.50;;
6422;SDS011;3244;42.708;23.288;2023-09-19T02:49:05;6.63;;;6.00;;
6422;SDS011;3244;42.708;23.288;2023-09-19T02:51:32;7.82;;;6.35;;
6422;SDS011;3244;42.708;23.288;2023-09-19T02:54:00;6.70;;;6.00;;
6422;SDS011;3244;42.708;23.288;2023-09-19T02:56:29;8.10;;;5.57;;
6422;SDS011;3244;42.708;23.288;2023-09-19T02:58:55;8.18;;;6.38;;
6422;SDS011;3244;42.708;23.288;2023-09-19T03:01:22;6.47;;;5.97;;
6422;SDS011;3244;42.708;23.288;2023-09-19T03:03:49;6.78;;;6.28;;
6422;SDS011;3244;42.708;23.288;2023-09-19T03:06:15;6.65;;;6.10;;
6422;SDS011;3244;42.708;23.288;2023-09-19T03:08:45;7.82;;;5.35;;
6422;SDS011;3244;42.708;23.288;2023-09-19T03:11:15;6.80;;;5.93;;
6422;SDS011;3244;42.708;23.288;2023-09-19T03:13:44;5.88;;;5.28;;
6422;SDS011;3244;42.708;23.288;2023-09-19T03:16:11;9.05;;;5.85;;
6422;SDS011;3244;42.708;23.288;2023-09-19T03:18:40;7.05;;;6.47;;
6422;SDS011;3244;42.708;23.288;2023-09-19T03:21:06;6.03;;;5.53;;
6422;SDS011;3244;42.708;23.288;2023-09-19T03:23:33;6.53;;;5.90;;
6422;SDS011;3244;42.708;23.288;2023-09-19T03:25:59;8.98;;;7.10;;
6422;SDS011;3244;42.708;23.288;2023-09-19T03:28:27;7.05;;;5.65;;
6422;SDS011;3244;42.708;23.288;2023-09-19T03:31:00;9.23;;;6.32;;
6422;SDS011;3244;42.708;23.288;2023-09-19T03:33:27;5.85;;;5.35;;
6422;SDS011;3244;42.708;23.288;2023-09-19T03:35:56;8.68;;;5.88;;
6422;SDS011;3244;42.708;23.288;2023-09-19T03:38:23;6.50;;;5.82;;
6422;SDS011;3244;42.708;23.288;2023-09-19T03:40:49;8.10;;;6.32;;
6422;SDS011;3244;42.708;23.288;2023-09-19T03:43:16;7.05;;;6.45;;
6422;SDS011;3244;42.708;23.288;2023-09-19T03:45:44;8.32;;;6.82;;
6422;SDS011;3244;42.708;23.288;2023-09-19T03:48:11;7.75;;;7.15;;
6422;SDS011;3244;42.708;23.288;2023-09-19T03:50:38;7.45;;;6.85;;
6422;SDS011;3244;42.708;23.288;2023-09-19T03:53:05;7.82;;;6.53;;
6422;SDS011;3244;42.708;23.288;2023-09-19T03:55:32;10.88;;;6.45;;
6422;SDS011;3244;42.708;23.288;2023-09-19T03:58:00;8.55;;;6.55;;
6422;SDS011;3244;42.708;23.288;2023-09-19T04:00:26;7.80;;;7.00;;
6422;SDS011;3244;42.708;23.288;2023-09-19T04:02:56;23.33;;;14.85;;
6422;SDS011;3244;42.708;23.288;2023-09-19T04:05:22;12.13;;;9.88;;
6422;SDS011;3244;42.708;23.288;2023-09-19T04:07:49;8.10;;;6.78;;
6422;SDS011;3244;42.708;23.288;2023-09-19T04:10:16;8.63;;;7.80;;
6422;SDS011;3244;42.708;23.288;2023-09-19T04:12:50;7.45;;;6.78;;
6422;SDS011;3244;42.708;23.288;2023-09-19T04:15:16;6.97;;;6.38;;
6422;SDS011;3244;42.708;23.288;2023-09-19T04:17:43;10.63;;;6.63;;
6422;SDS011;3244;42.708;23.288;2023-09-19T04:20:11;6.93;;;6.00;;
6422;SDS011;3244;42.708;23.288;2023-09-19T04:22:38;7.32;;;6.30;;
6422;SDS011;3244;42.708;23.288;2023-09-19T04:25:05;7.28;;;6.57;;
6422;SDS011;3244;42.708;23.288;2023-09-19T04:27:31;16.45;;;12.60;;
6422;SDS011;3244;42.708;23.288;2023-09-19T04:29:59;16.80;;;11.85;;
6422;SDS011;3244;42.708;23.288;2023-09-19T04:32:30;10.50;;;8.23;;
6422;SDS011;3244;42.708;23.288;2023-09-19T04:34:57;11.07;;;7.03;;
6422;SDS011;3244;42.708;23.288;2023-09-19T04:37:29;8.68;;;6.38;;
6422;SDS011;3244;42.708;23.288;2023-09-19T04:39:55;7.90;;;6.55;;
6422;SDS011;3244;42.708;23.288;2023-09-19T04:42:21;22.02;;;15.95;;
6422;SDS011;3244;42.708;23.288;2023-09-19T04:44:49;19.90;;;14.18;;
6422;SDS011;3244;42.708;23.288;2023-09-19T04:47:19;21.88;;;9.07;;
6422;SDS011;3244;42.708;23.288;2023-09-19T04:49:46;43.70;;;26.92;;
6422;SDS011;3244;42.708;23.288;2023-09-19T04:52:12;16.45;;;13.05;;
6422;SDS011;3244;42.708;23.288;2023-09-19T04:54:41;10.70;;;8.85;;
6422;SDS011;3244;42.708;23.288;2023-09-19T04:57:08;8.48;;;7.53;;
6422;SDS011;3244;42.708;23.288;2023-09-19T04:59:34;8.88;;;7.25;;
6422;SDS011;3244;42.708;23.288;2023-09-19T05:02:01;11.25;;;7.78;;
6422;SDS011;3244;42.708;23.288;2023-09-19T05:04:27;8.02;;;7.22;;
6422;SDS011;3244;42.708;23.288;2023-09-19T05:06:54;8.30;;;7.20;;
6422;SDS011;3244;42.708;23.288;2023-09-19T05:09:20;8.63;;;6.85;;
6422;SDS011;3244;42.708;23.288;2023-09-19T05:11:48;6.80;;;6.00;;
6422;SDS011;3244;42.708;23.288;2023-09-19T05:14:16;7.18;;;6.10;;
6422;SDS011;3244;42.708;23.288;2023-09-19T05:16:42;12.13;;;7.05;;
6422;SDS011;3244;42.708;23.288;2023-09-19T05:19:09;6.38;;;5.82;;
6422;SDS011;3244;42.708;23.288;2023-09-19T05:21:36;9.57;;;5.70;;
6422;SDS011;3244;42.708;23.288;2023-09-19T05:24:04;5.82;;;5.20;;
6422;SDS011;3244;42.708;23.288;2023-09-19T05:26:31;6.40;;;5.75;;
6422;SDS011;3244;42.708;23.288;2023-09-19T05:28:59;5.90;;;5.40;;
6422;SDS011;3244;42.708;23.288;2023-09-19T05:31:26;6.93;;;6.40;;
6422;SDS011;3244;42.708;23.288;2023-09-19T05:33:52;8.30;;;5.63;;
6422;SDS011;3244;42.708;23.288;2023-09-19T05:36:19;9.45;;;5.70;;
6422;SDS011;3244;42.708;23.288;2023-09-19T05:38:46;6.25;;;5.40;;
6422;SDS011;3244;42.708;23.288;2023-09-19T05:41:15;8.70;;;5.05;;
6422;SDS011;3244;42.708;23.288;2023-09-19T05:43:43;6.45;;;5.63;;
6422;SDS011;3244;42.708;23.288;2023-09-19T05:46:10;8.73;;;5.60;;
6422;SDS011;3244;42.708;23.288;2023-09-19T05:48:37;6.32;;;5.72;;
6422;SDS011;3244;42.708;23.288;2023-09-19T05:51:04;5.63;;;4.93;;
6422;SDS011;3244;42.708;23.288;2023-09-19T05:53:31;6.18;;;5.63;;
6422;SDS011;3244;42.708;23.288;2023-09-19T05:55:58;5.82;;;5.30;;
6422;SDS011;3244;42.708;23.288;2023-09-19T05:58:26;6.60;;;5.72;;
6422;SDS011;3244;42.708;23.288;2023-09-19T06:00:52;5.55;;;5.25;;
6422;SDS011;3244;42.708;23.288;2023-09-19T06:03:20;8.02;;;5.43;;
6422;SDS011;3244;42.708;23.288;2023-09-19T06:05:46;6.78;;;5.53;;
6422;SDS011;3244;42.708;23.288;2023-09-19T06:08:14;6.05;;;5.47;;
6422;SDS011;3244;42.708;23.288;2023-09-19T06:10:41;6.28;;;5.10;;
6422;SDS011;3244;42.708;23.288;2023-09-19T06:13:07;8.20;;;5.05;;
6422;SDS011;3244;42.708;23.288;2023-09-19T06:15:34;5.25;;;4.85;;
6422;SDS011;3244;42.708;23.288;2023-09-19T06:18:01;7.45;;;5.43;;
6422;SDS011;3244;42.708;23.288;2023-09-19T06:20:31;5.35;;;4.95;;
6422;SDS011;3244;42.708;23.288;2023-09-19T06:22:58;5.47;;;4.97;;
6422;SDS011;3244;42.708;23.288;2023-09-19T06:25:26;6.72;;;5.18;;
6422;SDS011;3244;42.708;23.288;2023-09-19T06:27:53;7.20;;;5.32;;
6422;SDS011;3244;42.708;23.288;2023-09-19T06:30:20;4.90;;;4.50;;
6422;SDS011;3244;42.708;23.288;2023-09-19T06:32:46;7.38;;;4.95;;
6422;SDS011;3244;42.708;23.288;2023-09-19T06:35:13;5.75;;;5.22;;
6422;SDS011;3244;42.708;23.288;2023-09-19T06:37:42;6.55;;;4.88;;
6422;SDS011;3244;42.708;23.288;2023-09-19T06:40:09;5.55;;;4.35;;
6422;SDS011;3244;42.708;23.288;2023-09-19T06:42:38;5.57;;;5.18;;
6422;SDS011;3244;42.708;23.288;2023-09-19T06:45:06;4.90;;;4.60;;
6422;SDS011;3244;42.708;23.288;2023-09-19T06:47:32;5.97;;;4.63;;
6422;SDS011;3244;42.708;23.288;2023-09-19T06:49:59;5.13;;;4.32;;
6422;SDS011;3244;42.708;23.288;2023-09-19T06:52:27;8.45;;;4.32;;
6422;SDS011;3244;42.708;23.288;2023-09-19T06:54:55;5.93;;;4.78;;
6422;SDS011;3244;42.708;23.288;2023-09-19T06:57:22;9.18;;;5.10;;
6422;SDS011;3244;42.708;23.288;2023-09-19T06:59:49;5.28;;;4.82;;
6422;SDS011;3244;42.708;23.288;2023-09-19T07:02:15;6.55;;;5.13;;
6422;SDS011;3244;42.708;23.288;2023-09-19T07:04:42;7.43;;;5.82;;
6422;SDS011;3244;42.708;23.288;2023-09-19T07:07:08;5.32;;;4.93;;
6422;SDS011;3244;42.708;23.288;2023-09-19T07:09:35;5.15;;;4.65;;
6422;SDS011;3244;42.708;23.288;2023-09-19T07:12:03;4.75;;;4.45;;
6422;SDS011;3244;42.708;23.288;2023-09-19T07:14:30;9.80;;;4.60;;
6422;SDS011;3244;42.708;23.288;2023-09-19T07:16:57;6.75;;;5.70;;
6422;SDS011;3244;42.708;23.288;2023-09-19T07:19:25;5.68;;;5.10;;
6422;SDS011;3244;42.708;23.288;2023-09-19T07:21:53;6.88;;;4.53;;
6422;SDS011;3244;42.708;23.288;2023-09-19T07:24:20;7.00;;;4.53;;
6422;SDS011;3244;42.708;23.288;2023-09-19T07:26:48;6.00;;;4.55;;
6422;SDS011;3244;42.708;23.288;2023-09-19T07:29:16;4.63;;;4.20;;
6422;SDS011;3244;42.708;23.288;2023-09-19T07:31:42;4.53;;;4.13;;
6422;SDS011;3244;42.708;23.288;2023-09-19T07:34:09;4.15;;;3.95;;
6422;SDS011;3244;42.708;23.288;2023-09-19T07:36:35;11.25;;;5.38;;
6422;SDS011;3244;42.708;23.288;2023-09-19T07:39:03;8.40;;;3.83;;
6422;SDS011;3244;42.708;23.288;2023-09-19T07:41:32;4.35;;;3.85;;
6422;SDS011;3244;42.708;23.288;2023-09-19T07:43:58;5.93;;;5.53;;
6422;SDS011;3244;42.708;23.288;2023-09-19T07:46:26;5.20;;;4.72;;
6422;SDS011;3244;42.708;23.288;2023-09-19T07:48:52;4.85;;;4.40;;
6422;SDS011;3244;42.708;23.288;2023-09-19T07:51:19;7.70;;;3.78;;
6422;SDS011;3244;42.708;23.288;2023-09-19T07:53:45;5.15;;;4.38;;
6422;SDS011;3244;42.708;23.288;2023-09-19T07:56:13;4.88;;;4.47;;
6422;SDS011;3244;42.708;23.288;2023-09-19T07:58:40;4.78;;;4.35;;
6422;SDS011;3244;42.708;23.288;2023-09-19T08:01:09;5.65;;;4.53;;
6422;SDS011;3244;42.708;23.288;2023-09-19T08:03:37;6.45;;;4.65;;
6422;SDS011;3244;42.708;23.288;2023-09-19T08:06:05;4.57;;;3.78;;
6422;SDS011;3244;42.708;23.288;2023-09-19T08:08:32;4.50;;;4.20;;
6422;SDS011;3244;42.708;23.288;2023-09-19T08:10:59;7.15;;;5.05;;
6422;SDS011;3244;42.708;23.288;2023-09-19T08:13:26;5.68;;;5.05;;
6422;SDS011;3244;42.708;23.288;2023-09-19T08:15:53;4.57;;;4.03;;
6422;SDS011;3244;42.708;23.288;2023-09-19T08:18:19;5.93;;;4.65;;
6422;SDS011;3244;42.708;23.288;2023-09-19T08:20:51;5.70;;;4.25;;
6422;SDS011;3244;42.708;23.288;2023-09-19T08:23:18;7.20;;;4.38;;
6422;SDS011;3244;42.708;23.288;2023-09-19T08:25:45;4.78;;;4.30;;
6422;SDS011;3244;42.708;23.288;2023-09-19T08:28:11;4.82;;;4.40;;
6422;SDS011;3244;42.708;23.288;2023-09-19T08:30:42;4.57;;;3.75;;
6422;SDS011;3244;42.708;23.288;2023-09-19T08:33:09;5.65;;;4.72;;
6422;SDS011;3244;42.708;23.288;2023-09-19T08:35:35;5.00;;;4.60;;
6422;SDS011;3244;42.708;23.288;2023-09-19T08:38:06;4.57;;;4.28;;
6422;SDS011;3244;42.708;23.288;2023-09-19T08:40:32;5.72;;;4.47;;
6422;SDS011;3244;42.708;23.288;2023-09-19T08:42:59;5.45;;;5.00;;
6422;SDS011;3244;42.708;23.288;2023-09-19T08:45:26;6.18;;;5.35;;
6422;SDS011;3244;42.708;23.288;2023-09-19T08:48:06;4.35;;;4.05;;
6422;SDS011;3244;42.708;23.288;2023-09-19T08:50:39;5.40;;;4.90;;
6422;SDS011;3244;42.708;23.288;2023-09-19T08:53:10;13.23;;;4.57;;
6422;SDS011;3244;42.708;23.288;2023-09-19T08:55:37;5.47;;;4.80;;
6422;SDS011;3244;42.708;23.288;2023-09-19T08:58:06;7.00;;;5.60;;
6422;SDS011;3244;42.708;23.288;2023-09-19T09:00:35;9.32;;;5.53;;
6422;SDS011;3244;42.708;23.288;2023-09-19T09:03:02;5.70;;;5.22;;
6422;SDS011;3244;42.708;23.288;2023-09-19T09:05:29;5.50;;;5.00;;
6422;SDS011;3244;42.708;23.288;2023-09-19T09:07:57;6.03;;;5.60;;
6422;SDS011;3244;42.708;23.288;2023-09-19T09:10:26;14.32;;;5.10;;
6422;SDS011;3244;42.708;23.288;2023-09-19T09:12:53;9.48;;;5.30;;
6422;SDS011;3244;42.708;23.288;2023-09-19T09:15:20;5.80;;;5.03;;
6422;SDS011;3244;42.708;23.288;2023-09-19T09:17:48;5.90;;;5.32;;
6422;SDS011;3244;42.708;23.288;2023-09-19T09:20:15;7.63;;;5.80;;
6422;SDS011;3244;42.708;23.288;2023-09-19T09:22:49;4.60;;;4.30;;
6422;SDS011;3244;42.708;23.288;2023-09-19T09:25:16;5.47;;;4.47;;
6422;SDS011;3244;42.708;23.288;2023-09-19T09:27:44;4.70;;;4.30;;
6422;SDS011;3244;42.708;23.288;2023-09-19T09:30:12;6.93;;;4.70;;
6422;SDS011;3244;42.708;23.288;2023-09-19T09:33:07;5.43;;;4.93;;
6422;SDS011;3244;42.708;23.288;2023-09-19T09:35:36;6.35;;;5.13;;
6422;SDS011;3244;42.708;23.288;2023-09-19T09:38:04;10.48;;;6.13;;
6422;SDS011;3244;42.708;23.288;2023-09-19T09:40:43;7.03;;;5.35;;
6422;SDS011;3244;42.708;23.288;2023-09-19T09:43:24;5.65;;;5.15;;
6422;SDS011;3244;42.708;23.288;2023-09-19T09:46:02;7.65;;;5.68;;
6422;SDS011;3244;42.708;23.288;2023-09-19T09:48:44;6.22;;;5.13;;
6422;SDS011;3244;42.708;23.288;2023-09-19T09:51:17;12.18;;;5.30;;
6422;SDS011;3244;42.708;23.288;2023-09-19T09:53:56;7.55;;;5.07;;
6422;SDS011;3244;42.708;23.288;2023-09-19T09:56:39;7.97;;;5.40;;
6422;SDS011;3244;42.708;23.288;2023-09-19T09:59:19;6.40;;;5.72;;
6422;SDS011;3244;42.708;23.288;2023-09-19T10:01:49;5.40;;;5.00;;
6422;SDS011;3244;42.708;23.288;2023-09-19T10:04:26;11.50;;;5.55;;
6422;SDS011;3244;42.708;23.288;2023-09-19T10:06:56;6.40;;;5.65;;
6422;SDS011;3244;42.708;23.288;2023-09-19T10:09:23;9.70;;;5.35;;
6422;SDS011;3244;42.708;23.288;2023-09-19T10:12:03;6.13;;;5.50;;
6422;SDS011;3244;42.708;23.288;2023-09-19T10:14:32;10.77;;;5.28;;
6422;SDS011;3244;42.708;23.288;2023-09-19T10:17:00;11.30;;;4.93;;
6422;SDS011;3244;42.708;23.288;2023-09-19T10:19:33;6.53;;;5.03;;
6422;SDS011;3244;42.708;23.288;2023-09-19T10:22:02;7.45;;;5.22;;
6422;SDS011;3244;42.708;23.288;2023-09-19T10:24:34;5.22;;;4.88;;
6422;SDS011;3244;42.708;23.288;2023-09-19T10:27:01;5.60;;;4.50;;
6422;SDS011;3244;42.708;23.288;2023-09-19T10:29:31;4.90;;;4.40;;
6422;SDS011;3244;42.708;23.288;2023-09-19T10:32:01;5.97;;;5.20;;
6422;SDS011;3244;42.708;23.288;2023-09-19T10:34:30;8.60;;;4.82;;
6422;SDS011;3244;42.708;23.288;2023-09-19T10:36:57;6.95;;;4.63;;
6422;SDS011;3244;42.708;23.288;2023-09-19T10:39:30;6.70;;;4.60;;
6422;SDS011;3244;42.708;23.288;2023-09-19T10:42:01;12.05;;;5.18;;
6422;SDS011;3244;42.708;23.288;2023-09-19T10:44:32;6.10;;;5.25;;
6422;SDS011;3244;42.708;23.288;2023-09-19T10:46:59;9.52;;;4.97;;
6422;SDS011;3244;42.708;23.288;2023-09-19T10:49:26;10.40;;;5.63;;
6422;SDS011;3244;42.708;23.288;2023-09-19T10:51:53;5.63;;;5.13;;
6422;SDS011;3244;42.708;23.288;2023-09-19T10:54:21;6.00;;;5.28;;
6422;SDS011;3244;42.708;23.288;2023-09-19T10:56:53;4.90;;;4.55;;
6422;SDS011;3244;42.708;23.288;2023-09-19T10:59:23;6.90;;;4.75;;
6422;SDS011;3244;42.708;23.288;2023-09-19T11:02:15;9.65;;;4.55;;
6422;SDS011;3244;42.708;23.288;2023-09-19T11:04:43;6.93;;;4.28;;
6422;SDS011;3244;42.708;23.288;2023-09-19T11:07:13;7.65;;;4.70;;
6422;SDS011;3244;42.708;23.288;2023-09-19T11:09:44;8.70;;;4.90;;
6422;SDS011;3244;42.708;23.288;2023-09-19T11:12:12;5.25;;;4.80;;
6422;SDS011;3244;42.708;23.288;2023-09-19T11:14:39;4.75;;;4.00;;
6422;SDS011;3244;42.708;23.288;2023-09-19T11:20:22;6.50;;;4.95;;
6422;SDS011;3244;42.708;23.288;2023-09-19T11:23:19;6.50;;;4.53;;
6422;SDS011;3244;42.708;23.288;2023-09-19T11:25:50;5.00;;;4.70;;
6422;SDS011;3244;42.708;23.288;2023-09-19T11:28:28;9.80;;;4.55;;
6422;SDS011;3244;42.708;23.288;2023-09-19T11:30:58;9.85;;;5.57;;
6422;SDS011;3244;42.708;23.288;2023-09-19T11:33:27;4.65;;;4.30;;
6422;SDS011;3244;42.708;23.288;2023-09-19T11:36:03;5.10;;;4.43;;
6422;SDS011;3244;42.708;23.288;2023-09-19T11:41:39;5.25;;;4.82;;
6422;SDS011;3244;42.708;23.288;2023-09-19T11:47:03;6.13;;;4.45;;
6422;SDS011;3244;42.708;23.288;2023-09-19T11:49:33;5.50;;;4.07;;
6422;SDS011;3244;42.708;23.288;2023-09-19T11:52:02;5.22;;;4.70;;
6422;SDS011;3244;42.708;23.288;2023-09-19T11:54:32;6.10;;;3.83;;
6422;SDS011;3244;42.708;23.288;2023-09-19T11:56:59;7.10;;;4.82;;
6422;SDS011;3244;42.708;23.288;2023-09-19T11:59:28;6.47;;;4.72;;
6422;SDS011;3244;42.708;23.288;2023-09-19T12:01:56;6.47;;;5.13;;
6422;SDS011;3244;42.708;23.288;2023-09-19T12:04:34;7.72;;;5.97;;
6422;SDS011;3244;42.708;23.288;2023-09-19T12:07:03;4.82;;;4.53;;
6422;SDS011;3244;42.708;23.288;2023-09-19T12:09:36;7.35;;;4.75;;
6422;SDS011;3244;42.708;23.288;2023-09-19T12:12:05;9.68;;;4.75;;
6422;SDS011;3244;42.708;23.288;2023-09-19T12:14:32;5.57;;;5.18;;
6422;SDS011;3244;42.708;23.288;2023-09-19T12:17:00;5.82;;;4.82;;
6422;SDS011;3244;42.708;23.288;2023-09-19T12:19:28;9.05;;;5.35;;
6422;SDS011;3244;42.708;23.288;2023-09-19T12:21:57;5.43;;;5.10;;
6422;SDS011;3244;42.708;23.288;2023-09-19T12:24:25;5.65;;;5.10;;
6422;SDS011;3244;42.708;23.288;2023-09-19T12:26:59;6.82;;;5.72;;
6422;SDS011;3244;42.708;23.288;2023-09-19T12:29:26;7.22;;;5.50;;
6422;SDS011;3244;42.708;23.288;2023-09-19T12:31:55;6.45;;;4.95;;
6422;SDS011;3244;42.708;23.288;2023-09-19T12:34:23;6.95;;;5.25;;
6422;SDS011;3244;42.708;23.288;2023-09-19T12:37:10;11.52;;;6.13;;
6422;SDS011;3244;42.708;23.288;2023-09-19T12:39:42;7.10;;;5.80;;
6422;SDS011;3244;42.708;23.288;2023-09-19T12:42:13;9.48;;;5.63;;
6422;SDS011;3244;42.708;23.288;2023-09-19T12:44:42;9.63;;;6.10;;
6422;SDS011;3244;42.708;23.288;2023-09-19T12:47:13;6.03;;;5.45;;
6422;SDS011;3244;42.708;23.288;2023-09-19T12:52:37;12.43;;;5.50;;
6422;SDS011;3244;42.708;23.288;2023-09-19T12:55:05;11.20;;;6.45;;
6422;SDS011;3244;42.708;23.288;2023-09-19T12:57:32;6.60;;;5.60;;
6422;SDS011;3244;42.708;23.288;2023-09-19T13:00:00;6.88;;;5.28;;
6422;SDS011;3244;42.708;23.288;2023-09-19T13:02:27;8.07;;;5.68;;
6422;SDS011;3244;42.708;23.288;2023-09-19T13:04:54;6.10;;;5.35;;
6422;SDS011;3244;42.708;23.288;2023-09-19T13:07:41;6.00;;;5.40;;
6422;SDS011;3244;42.708;23.288;2023-09-19T13:10:12;7.60;;;5.15;;
6422;SDS011;3244;42.708;23.288;2023-09-19T13:12:42;5.40;;;4.85;;
6422;SDS011;3244;42.708;23.288;2023-09-19T13:15:14;7.30;;;5.10;;
6422;SDS011;3244;42.708;23.288;2023-09-19T13:17:45;5.53;;;5.13;;
6422;SDS011;3244;42.708;23.288;2023-09-19T13:20:22;7.28;;;5.20;;
6422;SDS011;3244;42.708;23.288;2023-09-19T13:22:55;6.53;;;5.53;;
6422;SDS011;3244;42.708;23.288;2023-09-19T13:25:25;5.13;;;4.53;;
6422;SDS011;3244;42.708;23.288;2023-09-19T13:27:55;5.85;;;4.57;;
6422;SDS011;3244;42.708;23.288;2023-09-19T13:30:25;7.57;;;5.57;;
6422;SDS011;3244;42.708;23.288;2023-09-19T13:33:04;8.15;;;5.47;;
6422;SDS011;3244;42.708;23.288;2023-09-19T13:35:32;4.80;;;4.50;;
6422;SDS011;3244;42.708;23.288;2023-09-19T13:38:00;5.03;;;4.70;;
6422;SDS011;3244;42.708;23.288;2023-09-19T13:40:27;7.00;;;5.20;;
6422;SDS011;3244;42.708;23.288;2023-09-19T13:42:55;6.25;;;4.63;;
6422;SDS011;3244;42.708;23.288;2023-09-19T13:45:22;6.55;;;5.18;;
6422;SDS011;3244;42.708;23.288;2023-09-19T13:47:52;8.20;;;5.40;;
6422;SDS011;3244;42.708;23.288;2023-09-19T13:50:18;6.47;;;5.15;;
6422;SDS011;3244;42.708;23.288;2023-09-19T13:52:49;5.43;;;4.82;;
6422;SDS011;3244;42.708;23.288;2023-09-19T13:55:18;6.40;;;5.70;;
6422;SDS011;3244;42.708;23.288;2023-09-19T13:57:45;10.18;;;5.85;;
6422;SDS011;3244;42.708;23.288;2023-09-19T14:00:15;6.07;;;5.25;;
6422;SDS011;3244;42.708;23.288;2023-09-19T14:02:42;6.28;;;5.63;;
6422;SDS011;3244;42.708;23.288;2023-09-19T14:05:11;5.70;;;5.30;;
6422;SDS011;3244;42.708;23.288;2023-09-19T14:07:39;5.72;;;5.22;;
6422;SDS011;3244;42.708;23.288;2023-09-19T14:10:07;5.55;;;4.97;;
6422;SDS011;3244;42.708;23.288;2023-09-19T14:12:36;6.55;;;5.28;;
6422;SDS011;3244;42.708;23.288;2023-09-19T14:15:06;5.20;;;4.78;;
6422;SDS011;3244;42.708;23.288;2023-09-19T14:17:33;5.20;;;4.80;;
6422;SDS011;3244;42.708;23.288;2023-09-19T14:20:00;5.30;;;4.90;;
6422;SDS011;3244;42.708;23.288;2023-09-19T14:22:26;6.60;;;5.90;;
6422;SDS011;3244;42.708;23.288;2023-09-19T14:24:53;5.25;;;4.90;;
6422;SDS011;3244;42.708;23.288;2023-09-19T14:27:20;7.50;;;5.10;;
6422;SDS011;3244;42.708;23.288;2023-09-19T14:29:48;6.30;;;5.75;;
6422;SDS011;3244;42.708;23.288;2023-09-19T14:32:14;8.73;;;5.28;;
6422;SDS011;3244;42.708;23.288;2023-09-19T14:34:41;10.68;;;5.25;;
6422;SDS011;3244;42.708;23.288;2023-09-19T14:37:09;6.75;;;5.38;;
6422;SDS011;3244;42.708;23.288;2023-09-19T14:39:36;6.32;;;5.25;;
6422;SDS011;3244;42.708;23.288;2023-09-19T14:42:03;6.75;;;5.70;;
6422;SDS011;3244;42.708;23.288;2023-09-19T14:44:30;6.07;;;5.22;;
6422;SDS011;3244;42.708;23.288;2023-09-19T14:46:58;5.90;;;5.35;;
6422;SDS011;3244;42.708;23.288;2023-09-19T14:49:25;6.15;;;5.63;;
6422;SDS011;3244;42.708;23.288;2023-09-19T14:51:52;8.38;;;5.53;;
6422;SDS011;3244;42.708;23.288;2023-09-19T14:54:18;7.15;;;5.65;;
6422;SDS011;3244;42.708;23.288;2023-09-19T14:56:46;6.05;;;5.43;;
6422;SDS011;3244;42.708;23.288;2023-09-19T14:59:18;8.02;;;5.45;;
6422;SDS011;3244;42.708;23.288;2023-09-19T15:01:45;7.30;;;6.63;;
6422;SDS011;3244;42.708;23.288;2023-09-19T15:04:13;7.15;;;5.70;;
6422;SDS011;3244;42.708;23.288;2023-09-19T15:06:40;5.63;;;5.00;;
6422;SDS011;3244;42.708;23.288;2023-09-19T15:09:06;8.63;;;5.68;;
6422;SDS011;3244;42.708;23.288;2023-09-19T15:11:34;12.00;;;5.75;;
6422;SDS011;3244;42.708;23.288;2023-09-19T15:14:01;6.15;;;5.32;;
6422;SDS011;3244;42.708;23.288;2023-09-19T15:16:28;7.50;;;6.35;;
6422;SDS011;3244;42.708;23.288;2023-09-19T15:18:55;12.77;;;6.30;;
6422;SDS011;3244;42.708;23.288;2023-09-19T15:21:24;7.53;;;5.30;;